Dirección General De Aeronáutica Civil

Dirección Meteorológica de Chile - Servicios Climáticos

Informe General de Control de Calidad de la Estación

Listado de niveles de control de calidad para algunos parámetros
Estación Panguipulli (390029)
Fecha de Revisión de los datos :

Elementos

Registros Niveles de Control Total
Nivel 0 Nivel 1 Nivel 2 Nivel 3 Errores Porcentaje
01 Temperatura del Aire Seco 46.294 0 . 0 . 0 . 0 . 0 0.00 %
02 Temperatura de Rocío 46.329 0 . 0 . 0 . 0 . 0 0.00 %
03 Humedad Relativa del Aire 46.323 0 . 0 . 0 . 0 . 0 0.00 %
04 Temperatura Máxima PM 1.925 0 . 0 . 51 2.65 % 0 . 51 2.65 %
05 Temperatura Mínima AM 1.902 0 . 0 . 45 2.37 % 0 . 45 2.37 %
06 Viento a 10 m. de Altura 46.330 0 . 0 . 2 0.00 % 0 . 2 0.00 %
07 Agua Caida, Acumulada 6 Horas 7.717 0 . 0 . 0 . 0 . 0 0.00 %
08 Presión Atm. a Nivel de Estación (QFE) 46.321 0 . 0 . 0 . 0 . 0 0.00 %
09 Presión Atm. a Nivel Medio del Mar (QFF) 46.324 0 . 0 . 0 . 0 . 0 0.00 %
10 Presión Atm. Estándar OACI (QNH) 46.321 0 . 0 . 0 . 0 . 0 0.00 %

Totales

335.786 . 0.0000 % . 0.0000 % . 0.0292 % . 0.0000 % 98 0.0292 %

Detalle de Errores Encontrados

Nivel Fecha del Dato Descripción Información Error Fecha Ingreso
2 2018-05-22 12:00:00 Temperatura 1.2 del 22-05-2018 05:00, Menor que la Mínima 2.7 22-05-2018 12:00 1.2 -- 2.7 2018-05-22 12:22:00
2 2022-02-05 12:00:00 Temperatura 11.2 del 05-02-2022 09:00, Menor que la Mínima 12.7 05-02-2022 12:00 11.2 -- 12.7 2022-02-05 12:36:00
2 2022-02-07 12:00:00 Temperatura 12.8 del 07-02-2022 10:00, Menor que la Mínima 15.4 07-02-2022 12:00 12.8 -- 15.4 2022-02-07 12:36:00
2 2022-02-19 12:00:00 Temperatura 11.5 del 19-02-2022 08:00, Menor que la Mínima 12.4 19-02-2022 12:00 11.5 -- 12.4 2022-02-19 12:36:00
2 2022-02-20 12:00:00 Temperatura 8.8 del 20-02-2022 06:00, Menor que la Mínima 12.5 20-02-2022 12:00 8.8 -- 12.5 2022-02-20 12:36:00
2 2022-02-27 12:00:00 Temperatura 11.2 del 27-02-2022 03:00, Menor que la Mínima 12.6 27-02-2022 12:00 11.2 -- 12.6 2022-02-27 12:37:00
2 2022-02-28 12:00:00 Temperatura 9.8 del 28-02-2022 04:00, Menor que la Mínima 10.8 28-02-2022 12:00 9.8 -- 10.8 2022-02-28 12:37:00
2 2022-03-01 12:00:00 Temperatura 7.0 del 01-03-2022 06:00, Menor que la Mínima 9.5 01-03-2022 12:00 7.0 -- 9.5 2022-03-01 12:37:00
2 2022-03-15 12:00:00 Temperatura 10.9 del 15-03-2022 09:00, Menor que la Mínima 11.1 15-03-2022 12:00 10.9 -- 11.1 2022-03-15 12:09:00
2 2022-03-16 12:00:00 Temperatura 8.3 del 16-03-2022 10:00, Menor que la Mínima 11.6 16-03-2022 12:00 8.3 -- 11.6 2022-03-16 12:10:00
2 2022-03-17 12:00:00 Temperatura 6.5 del 17-03-2022 11:00, Menor que la Mínima 15.1 17-03-2022 12:00 6.5 -- 15.1 2022-03-17 12:21:00
2 2022-03-18 12:00:00 Temperatura 4.5 del 18-03-2022 10:00, Menor que la Mínima 5.6 18-03-2022 12:00 4.5 -- 5.6 2022-03-18 13:36:00
2 2022-03-19 12:00:00 Temperatura 5.6 del 19-03-2022 11:00, Menor que la Mínima 7.1 19-03-2022 12:00 5.6 -- 7.1 2022-03-19 12:09:00
2 2022-03-21 12:00:00 Temperatura 10.2 del 21-03-2022 05:00, Menor que la Mínima 11.5 21-03-2022 12:00 10.2 -- 11.5 2022-03-21 12:09:00
2 2022-03-26 12:00:00 Temperatura 7.4 del 26-03-2022 08:00, Menor que la Mínima 14.9 26-03-2022 12:00 7.4 -- 14.9 2022-03-26 12:36:00
2 2022-03-28 12:00:00 Temperatura 3.5 del 28-03-2022 11:00, Menor que la Mínima 5.6 28-03-2022 12:00 3.5 -- 5.6 2022-03-28 12:36:00
2 2022-03-30 12:00:00 Temperatura 3.5 del 30-03-2022 11:00, Menor que la Mínima 7.3 30-03-2022 12:00 3.5 -- 7.3 2022-03-30 12:21:00
2 2022-04-05 12:00:00 Temperatura 6.5 del 05-04-2022 08:00, Menor que la Mínima 6.9 05-04-2022 12:00 6.5 -- 6.9 2022-04-05 12:36:00
2 2022-04-08 12:00:00 Temperatura 12.2 del 08-04-2022 05:00, Menor que la Mínima 13.4 08-04-2022 12:00 12.2 -- 13.4 2022-04-08 12:51:00
2 2022-04-11 12:00:00 Temperatura 5.1 del 11-04-2022 09:00, Menor que la Mínima 6.1 11-04-2022 12:00 5.1 -- 6.1 2022-04-11 12:09:00
2 2022-04-15 12:00:00 Temperatura 8.2 del 15-04-2022 05:00, Menor que la Mínima 9.1 15-04-2022 12:00 8.2 -- 9.1 2022-04-15 12:09:00
2 2022-04-18 12:00:00 Temperatura 9.1 del 18-04-2022 08:00, Menor que la Mínima 9.9 18-04-2022 12:00 9.1 -- 9.9 2022-04-18 12:10:00
2 2022-04-24 12:00:00 Temperatura 8.7 del 24-04-2022 03:00, Menor que la Mínima 10.0 24-04-2022 12:00 8.7 -- 10.0 2022-04-24 12:37:00
2 2022-04-25 12:00:00 Temperatura 4.2 del 25-04-2022 02:00, Menor que la Mínima 6.0 25-04-2022 12:00 4.2 -- 6.0 2022-04-25 12:21:00
2 2022-04-27 12:00:00 Temperatura 5.4 del 27-04-2022 05:00, Menor que la Mínima 7.0 27-04-2022 12:00 5.4 -- 7.0 2022-04-27 12:22:00
2 2022-04-28 12:00:00 Temperatura 3.4 del 28-04-2022 01:00, Menor que la Mínima 3.5 28-04-2022 12:00 3.4 -- 3.5 2022-04-28 12:22:00
2 2022-04-30 12:00:00 Temperatura 4.1 del 30-04-2022 05:00, Menor que la Mínima 4.9 30-04-2022 12:00 4.1 -- 4.9 2022-04-30 12:21:00
2 2022-05-02 12:00:00 Temperatura 4.8 del 02-05-2022 04:00, Menor que la Mínima 7.5 02-05-2022 12:00 4.8 -- 7.5 2022-05-02 12:09:00
2 2022-05-04 12:00:00 Temperatura 5.6 del 04-05-2022 11:00, Menor que la Mínima 7.5 04-05-2022 12:00 5.6 -- 7.5 2022-05-04 12:10:00
2 2022-05-09 12:00:00 Temperatura 7.6 del 09-05-2022 06:00, Menor que la Mínima 8.7 09-05-2022 12:00 7.6 -- 8.7 2022-05-09 12:09:00
2 2022-05-11 12:00:00 Temperatura 4.2 del 11-05-2022 11:00, Menor que la Mínima 4.4 11-05-2022 12:00 4.2 -- 4.4 2022-05-11 12:09:00
2 2022-05-18 12:00:00 Temperatura 6.3 del 18-05-2022 12:00, Menor que la Mínima 16.0 18-05-2022 12:00 6.3 -- 16.0 2022-05-18 12:36:00
2 2022-06-06 12:00:00 Temperatura 7.4 del 06-06-2022 04:00, Menor que la Mínima 8.2 06-06-2022 12:00 7.4 -- 8.2 2022-06-06 12:09:00
2 2022-06-07 12:00:00 Temperatura 8.4 del 07-06-2022 11:00, Menor que la Mínima 8.5 07-06-2022 12:00 8.4 -- 8.5 2022-06-07 12:09:00
2 2022-06-08 12:00:00 Temperatura 4.7 del 08-06-2022 06:00, Menor que la Mínima 6.7 08-06-2022 12:00 4.7 -- 6.7 2022-06-08 12:09:00
2 2022-06-09 12:00:00 Temperatura 1.1 del 09-06-2022 11:00, Menor que la Mínima 1.7 09-06-2022 12:00 1.1 -- 1.7 2022-06-09 12:09:00
2 2022-06-12 12:00:00 Temperatura -0.4 del 12-06-2022 11:00, Menor que la Mínima 5.3 12-06-2022 12:00 -0.4 -- 5.3 2022-06-12 12:21:00
2 2022-06-13 12:00:00 Temperatura 2.5 del 13-06-2022 08:00, Menor que la Mínima 3.9 13-06-2022 12:00 2.5 -- 3.9 2022-06-13 12:09:00
2 2022-06-24 12:00:00 Temperatura 5.1 del 24-06-2022 07:00, Menor que la Mínima 6.7 24-06-2022 12:00 5.1 -- 6.7 2022-06-24 12:10:00
2 2022-07-01 12:00:00 Temperatura 4.4 del 01-07-2022 01:00, Menor que la Mínima 4.7 01-07-2022 12:00 4.4 -- 4.7 2022-07-01 12:09:00
2 2022-07-05 12:00:00 Temperatura 4.9 del 05-07-2022 12:00, Menor que la Mínima 6.6 05-07-2022 12:00 4.9 -- 6.6 2022-07-05 19:21:00
2 2022-07-07 12:00:00 Temperatura 3.5 del 07-07-2022 04:00, Menor que la Mínima 4.4 07-07-2022 12:00 3.5 -- 4.4 2022-07-12 08:09:00
2 2022-07-11 12:00:00 Temperatura 4.7 del 11-07-2022 07:00, Menor que la Mínima 5.0 11-07-2022 12:00 4.7 -- 5.0 2022-07-12 08:09:00
2 2022-07-24 12:00:00 Temperatura 7.4 del 24-07-2022 11:00, Menor que la Mínima 8.4 24-07-2022 12:00 7.4 -- 8.4 2022-07-24 18:21:00
2 2022-07-26 12:00:00 Temperatura 7.1 del 26-07-2022 04:00, Menor que la Mínima 8.1 26-07-2022 12:00 7.1 -- 8.1 2022-07-26 12:10:00
2 2021-11-27 00:00:00 Temperatura 19.7 del 26-11-2021 18:00, Mayor que la Máxima 15.1 27-11-2021 00:00 19.7 -- 15.1 2021-11-27 00:20:00
2 2022-02-04 00:00:00 Temperatura 26.3 del 03-02-2022 20:00, Mayor que la Máxima 15.2 04-02-2022 00:00 26.3 -- 15.2 2022-02-04 00:31:00
2 2022-02-05 00:00:00 Temperatura 24.4 del 04-02-2022 19:00, Mayor que la Máxima 18.9 05-02-2022 00:00 24.4 -- 18.9 2022-02-05 00:36:00
2 2022-02-08 00:00:00 Temperatura 29.6 del 07-02-2022 20:00, Mayor que la Máxima 23.1 08-02-2022 00:00 29.6 -- 23.1 2022-02-08 00:38:00
2 2022-02-20 00:00:00 Temperatura 20.4 del 19-02-2022 17:00, Mayor que la Máxima 15.1 20-02-2022 00:00 20.4 -- 15.1 2022-02-20 00:36:00
2 2022-02-23 00:00:00 Temperatura 25.1 del 22-02-2022 17:00, Mayor que la Máxima 16.1 23-02-2022 00:00 25.1 -- 16.1 2022-02-23 00:36:00
2 2022-02-25 00:00:00 Temperatura 20.8 del 24-02-2022 20:00, Mayor que la Máxima 16.3 25-02-2022 00:00 20.8 -- 16.3 2022-02-25 00:36:00
2 2022-03-04 00:00:00 Temperatura 20.8 del 03-03-2022 18:00, Mayor que la Máxima 16.3 04-03-2022 00:00 20.8 -- 16.3 2022-03-04 00:37:00
2 2022-03-05 00:00:00 Temperatura 18.9 del 04-03-2022 20:00, Mayor que la Máxima 13.6 05-03-2022 00:00 18.9 -- 13.6 2022-03-05 00:44:00
2 2022-03-16 00:00:00 Temperatura 24.1 del 15-03-2022 21:00, Mayor que la Máxima 15.6 16-03-2022 00:00 24.1 -- 15.6 2022-03-16 00:09:00
2 2022-03-18 00:00:00 Temperatura 17.0 del 17-03-2022 20:00, Mayor que la Máxima 11.2 18-03-2022 00:00 17.0 -- 11.2 2022-03-18 00:09:00
2 2022-03-19 00:00:00 Temperatura 19.0 del 18-03-2022 21:00, Mayor que la Máxima 12.8 19-03-2022 00:00 19.0 -- 12.8 2022-03-19 00:09:00
2 2022-03-22 00:00:00 Temperatura 16.9 del 21-03-2022 19:00, Mayor que la Máxima 11.8 22-03-2022 00:00 16.9 -- 11.8 2022-03-22 00:51:00
2 2022-03-26 00:00:00 Temperatura 20.6 del 25-03-2022 20:00, Mayor que la Máxima 15.1 26-03-2022 00:00 20.6 -- 15.1 2022-03-26 00:36:00
2 2022-03-29 00:00:00 Temperatura 12.8 del 28-03-2022 21:00, Mayor que la Máxima 11.1 29-03-2022 00:00 12.8 -- 11.1 2022-03-29 00:36:00
2 2022-03-30 00:00:00 Temperatura 14.1 del 29-03-2022 19:00, Mayor que la Máxima 7.5 30-03-2022 00:00 14.1 -- 7.5 2022-03-30 00:36:00
2 2022-03-31 00:00:00 Temperatura 15.4 del 30-03-2022 19:00, Mayor que la Máxima 10.5 31-03-2022 00:00 15.4 -- 10.5 2022-03-31 00:36:00
2 2022-04-05 00:00:00 Temperatura 16.5 del 04-04-2022 20:00, Mayor que la Máxima 12.2 05-04-2022 00:00 16.5 -- 12.2 2022-04-05 01:36:00
2 2022-04-08 00:00:00 Temperatura 18.5 del 07-04-2022 19:00, Mayor que la Máxima 13.4 08-04-2022 00:00 18.5 -- 13.4 2022-04-08 00:21:00
2 2022-04-12 00:00:00 Temperatura 9.7 del 11-04-2022 20:00, Mayor que la Máxima 9.2 12-04-2022 00:00 9.7 -- 9.2 2022-04-12 00:09:00
2 2022-04-13 00:00:00 Temperatura 13.6 del 12-04-2022 19:00, Mayor que la Máxima 6.8 13-04-2022 00:00 13.6 -- 6.8 2022-04-13 00:09:00
2 2022-04-14 00:00:00 Temperatura 16.6 del 13-04-2022 20:00, Mayor que la Máxima 11.3 14-04-2022 00:00 16.6 -- 11.3 2022-04-14 00:09:00
2 2022-04-19 00:00:00 Temperatura 17.2 del 18-04-2022 19:00, Mayor que la Máxima 11.7 19-04-2022 00:00 17.2 -- 11.7 2022-04-19 00:09:00
2 2022-04-20 00:00:00 Temperatura 15.3 del 19-04-2022 19:00, Mayor que la Máxima 10.6 20-04-2022 00:00 15.3 -- 10.6 2022-04-20 00:09:00
2 2022-04-23 00:00:00 Temperatura 12.1 del 22-04-2022 20:00, Mayor que la Máxima 10.7 23-04-2022 00:00 12.1 -- 10.7 2022-04-23 00:21:00
2 2022-04-24 00:00:00 Temperatura 12.1 del 23-04-2022 20:00, Mayor que la Máxima 8.5 24-04-2022 00:00 12.1 -- 8.5 2022-04-24 00:51:00
2 2022-04-26 00:00:00 Temperatura 10.2 del 25-04-2022 20:00, Mayor que la Máxima 9.7 26-04-2022 00:00 10.2 -- 9.7 2022-04-26 00:36:00
2 2022-04-27 00:00:00 Temperatura 11.2 del 26-04-2022 17:00, Mayor que la Máxima 5.8 27-04-2022 00:00 11.2 -- 5.8 2022-04-27 00:36:00
2 2022-04-28 00:00:00 Temperatura 10.5 del 27-04-2022 15:00, Mayor que la Máxima 7.3 28-04-2022 00:00 10.5 -- 7.3 2022-04-28 00:36:00
2 2022-04-29 00:00:00 Temperatura 11.2 del 28-04-2022 19:00, Mayor que la Máxima 3.9 29-04-2022 00:00 11.2 -- 3.9 2022-04-29 00:21:00
2 2022-04-30 00:00:00 Temperatura 11.3 del 29-04-2022 20:00, Mayor que la Máxima 6.3 30-04-2022 00:00 11.3 -- 6.3 2022-04-30 00:36:00
2 2022-05-01 00:00:00 Temperatura 12.3 del 30-04-2022 20:00, Mayor que la Máxima 4.9 01-05-2022 00:00 12.3 -- 4.9 2022-05-01 00:36:00
2 2022-05-03 00:00:00 Temperatura 14.9 del 02-05-2022 19:00, Mayor que la Máxima 7.4 03-05-2022 00:00 14.9 -- 7.4 2022-05-03 00:09:00
2 2022-05-05 00:00:00 Temperatura 16.9 del 04-05-2022 20:00, Mayor que la Máxima 10.7 05-05-2022 00:00 16.9 -- 10.7 2022-05-05 00:09:00
2 2022-05-06 00:00:00 Temperatura 16.9 del 05-05-2022 19:00, Mayor que la Máxima 10.8 06-05-2022 00:00 16.9 -- 10.8 2022-05-06 00:35:00
2 2022-05-10 00:00:00 Temperatura 12.3 del 09-05-2022 17:00, Mayor que la Máxima 8.4 10-05-2022 00:00 12.3 -- 8.4 2022-05-10 00:09:00
2 2022-05-11 00:00:00 Temperatura 13.9 del 10-05-2022 19:00, Mayor que la Máxima 6.6 11-05-2022 00:00 13.9 -- 6.6 2022-05-11 00:36:00
2 2022-05-17 00:00:00 Temperatura 19.3 del 16-05-2022 19:00, Mayor que la Máxima 15.2 17-05-2022 00:00 19.3 -- 15.2 2022-05-17 00:09:00
2 2022-05-18 00:00:00 Temperatura 19.4 del 17-05-2022 20:00, Mayor que la Máxima 16.0 18-05-2022 00:00 19.4 -- 16.0 2022-05-18 01:21:00
2 2022-05-19 00:00:00 Temperatura 18.4 del 18-05-2022 19:00, Mayor que la Máxima 9.6 19-05-2022 00:00 18.4 -- 9.6 2022-05-19 00:09:00
2 2022-05-24 00:00:00 Temperatura 8.0 del 23-05-2022 19:00, Mayor que la Máxima 5.9 24-05-2022 00:00 8.0 -- 5.9 2022-05-24 00:36:00
2 2022-06-01 00:00:00 Temperatura 7.7 del 31-05-2022 19:00, Mayor que la Máxima 0.4 01-06-2022 00:00 7.7 -- 0.4 2022-06-01 00:09:00
2 2022-06-07 00:00:00 Temperatura 10.1 del 06-06-2022 20:00, Mayor que la Máxima 9.9 07-06-2022 00:00 10.1 -- 9.9 2022-06-07 00:09:00
2 2022-06-09 00:00:00 Temperatura 10.5 del 08-06-2022 20:00, Mayor que la Máxima 9.8 09-06-2022 00:00 10.5 -- 9.8 2022-06-09 00:09:00
2 2022-06-14 00:00:00 Temperatura 7.4 del 13-06-2022 19:00, Mayor que la Máxima 6.8 14-06-2022 00:00 7.4 -- 6.8 2022-06-14 00:09:00
2 2022-06-24 00:00:00 Temperatura 6.2 del 23-06-2022 16:00, Mayor que la Máxima 5.2 24-06-2022 00:00 6.2 -- 5.2 2022-06-24 00:09:00
2 2022-06-25 00:00:00 Temperatura 7.9 del 24-06-2022 16:00, Mayor que la Máxima 7.3 25-06-2022 00:00 7.9 -- 7.3 2022-06-25 00:09:00
2 2022-07-01 00:00:00 Temperatura 7.7 del 30-06-2022 18:00, Mayor que la Máxima 4.8 01-07-2022 00:00 7.7 -- 4.8 2022-07-01 00:09:00
2 2022-07-07 00:00:00 Temperatura 4.6 del 06-07-2022 23:00, Mayor que la Máxima 4.4 07-07-2022 00:00 4.6 -- 4.4 2022-07-10 13:36:00
2 2022-07-22 00:00:00 Temperatura 5.2 del 22-07-2022 00:00, Mayor que la Máxima 3.8 22-07-2022 00:00 5.2 -- 3.8 2022-07-22 07:10:00
2 2022-07-28 00:00:00 Temperatura 9.4 del 27-07-2022 23:00, Mayor que la Máxima 9.1 28-07-2022 00:00 9.4 -- 9.1 2022-07-28 16:21:00
2 2022-04-25 03:00:00 Variación horaria de Intensidad del viento fuera de rango (1 hora Antes) 2 - 51 2022-04-25 03:21:00
2 2022-05-04 11:00:00 Variación horaria de Intensidad del viento fuera de rango (1 hora Antes) 46 - 4 2022-05-04 11:36:00
Errores del Nivel 98
Informe generado el 05-03-2024 11:24
Requerimiento: RE6001